Flight Track Log - Related Links

Times and Time Zones

All times are in EDT time to prevent confusion due to time zone crossing. See the AAL832 flight status page for this flight to view local times or setup timezone preferences in your user account.

Time Position Orientation Groundspeed Altitude Reporting Facility
EDT Latitude Longitude Course Direction KTS MPH feet Rate Location/Type
Mon 06:09:31 PM 41.9333 -87.9000 180° South 167 192 2,500  Level Chicago TRACON
Mon 06:11:00 PM 41.6537 -87.7152 166° South  Level Estimated
Mon 06:11:25 PM 41.8203 -87.8767 171° South 261 300 6,200  Level Chicago Center
Mon 06:12:00 PM 41.5443 -87.6518 166° South  Level Estimated
Mon 06:12:27 PM 41.7475 -87.8497 165° South 270 311 9,300  Level Chicago Center
Mon 06:13:00 PM 41.4349 -87.5887 180° South  Level Estimated
Mon 06:13:29 PM 41.6517 -87.8131 164° South 296 341 13,500  Level Chicago Center
Mon 06:14:00 PM 41.3255 -87.5257 180° South  Level Estimated
Mon 06:14:31 PM 41.5542 -87.7767 164° South 363 418 15,400  Level Chicago Center
Mon 06:15:33 PM 41.4483 -87.7353 164° South 388 447 18,700 3,000 Climbing Chicago Center
Mon 06:16:35 PM 41.3364 -87.7256 176° South 400 460 21,600 2,613 Climbing Chicago Center
Mon 06:17:37 PM 41.2206 -87.7256 180° South 410 472 24,100 2,274 Climbing Chicago Center
Mon 06:18:39 PM 41.1011 -87.7136 176° South 422 486 26,300 2,256 Climbing Chicago Center
Mon 06:19:42 PM 40.9517 -87.6903 173° South 447 514 28,800 2,160 Climbing Chicago Center
Mon 06:20:44 PM 40.8275 -87.6394 163° South 466 536 30,800 2,129 Climbing Chicago Center
Mon 06:21:46 PM 40.7056 -87.5775 159° South 473 544 33,200 2,032 Climbing Chicago Center
Mon 06:22:48 PM 40.5844 -87.5164 159° South 469 540 35,000 2,081 Climbing Chicago Center
Mon 06:23:50 PM 40.4483 -87.4506 160° South 469 540 37,500 1,935 Climbing Chicago Center
Mon 06:24:52 PM 40.3339 -87.3822 156° South 452 520 39,000 726 Climbing Chicago Center
Mon 06:25:54 PM 40.2208 -87.3094 154° Southeast 450 518 39,000  Level Chicago Center
Mon 06:26:56 PM 40.1094 -87.2369 154° Southeast 447 514 39,000  Level Chicago Center
Mon 06:27:47 PM 40.0108 -87.1803 156° South 451 519 39,000  Level Indianapolis Center
Mon 06:28:49 PM 39.8967 -87.1089 154° Southeast 452 520 39,000  Level Indianapolis Center
Mon 06:29:51 PM 39.7647 -87.0264 154° Southeast 451 519 39,000  Level Indianapolis Center
Mon 06:30:53 PM 39.6492 -86.9572 155° Southeast 455 524 39,000  Level Indianapolis Center
Mon 06:31:55 PM 39.5350 -86.8864 154° Southeast 456 525 39,000  Level Indianapolis Center
Mon 06:32:57 PM 39.4206 -86.8164 155° Southeast 455 524 39,000  Level Indianapolis Center
Mon 06:33:59 PM 39.3050 -86.7464 155° Southeast 457 526 39,000  Level Indianapolis Center
Mon 06:35:01 PM 39.1700 -86.6656 155° Southeast 457 526 39,000  Level Indianapolis Center
Mon 06:36:03 PM 39.0658 -86.6025 155° Southeast 462 532 39,000  Level Indianapolis Center
Mon 06:37:05 PM 38.9375 -86.5256 155° Southeast 459 528 39,000  Level Indianapolis Center
Mon 06:38:07 PM 38.8331 -86.4631 155° Southeast 458 527 39,000  Level Indianapolis Center
Mon 06:39:09 PM 38.6931 -86.3800 155° Southeast 458 527 39,000  Level Indianapolis Center
Mon 06:40:11 PM 38.5769 -86.3092 154° Southeast 459 528 39,000  Level Indianapolis Center
Mon 06:41:13 PM 38.4608 -86.2414 155° Southeast 454 522 39,000  Level Indianapolis Center
Mon 06:42:15 PM 38.3444 -86.1739 156° South 455 524 39,000  Level Indianapolis Center
Mon 06:43:17 PM 38.2281 -86.1050 155° Southeast 456 525 39,000  Level Indianapolis Center
Mon 06:44:19 PM 38.1122 -86.0358 155° Southeast 455 524 39,000  Level Indianapolis Center
Mon 06:45:21 PM 37.9953 -85.9700 156° South 456 525 39,000  Level Indianapolis Center
Mon 06:46:23 PM 37.8800 -85.9022 155° Southeast 454 522 39,000  Level Indianapolis Center
Mon 06:47:24 PM 37.7644 -85.8353 155° Southeast 453 521 39,000  Level Indianapolis Center
Mon 06:48:26 PM 37.6253 -85.7564 156° South 453 521 39,000  Level Indianapolis Center
Mon 06:49:28 PM 37.5103 -85.6889 155° Southeast 453 521 39,000  Level Indianapolis Center
Mon 06:50:30 PM 37.3939 -85.6233 156° South 455 524 39,000  Level Indianapolis Center
Mon 06:51:32 PM 37.2858 -85.5617 156° South 448 516 39,000  Level Indianapolis Center
Mon 06:52:34 PM 37.1636 -85.4925 156° South 442 509 39,000  Level Indianapolis Center
Mon 06:53:36 PM 37.0517 -85.4283 155° Southeast 440 506 39,000  Level Indianapolis Center
Mon 06:54:38 PM 36.9381 -85.3644 156° South 443 510 39,000  Level Indianapolis Center
Mon 06:55:40 PM 36.8272 -85.3014 156° South 439 505 39,000  Level Indianapolis Center
Mon 06:56:42 PM 36.6928 -85.2253 156° South 440 506 39,000  Level Indianapolis Center
Mon 06:57:44 PM 36.5781 -85.1725 160° South 442 509 39,000  Level Indianapolis Center
Mon 06:58:45 PM 36.4589 -85.1411 168° South 437 503 39,000  Level Indianapolis Center
Mon 06:59:47 PM 36.3406 -85.1117 169° South 436 502 39,000  Level Indianapolis Center
Mon 07:00:49 PM 36.2217 -85.0814 168° South 436 502 39,000  Level Indianapolis Center
Mon 07:01:51 PM 36.1028 -85.0500 168° South 437 503 39,000  Level Indianapolis Center
Mon 07:02:31 PM 36.0083 -85.0269 169° South 434 499 39,000  Level Atlanta Center
Mon 07:03:31 PM 35.8981 -84.9975 168° South 434 499 39,000  Level Atlanta Center
Mon 07:04:31 PM 35.7775 -84.9678 169° South 446 513 39,000  Level Atlanta Center
Mon 07:05:31 PM 35.6608 -84.9383 168° South 451 519 39,000  Level Atlanta Center
Mon 07:06:31 PM 35.5378 -84.9092 169° South 446 513 39,000  Level Atlanta Center
Mon 07:07:31 PM 35.4150 -84.8772 168° South 446 513 39,000  Level Atlanta Center
Mon 07:08:31 PM 35.2942 -84.8481 169° South 451 519 39,000  Level Atlanta Center
Mon 07:09:31 PM 35.1714 -84.8164 168° South 451 519 39,000  Level Atlanta Center
Mon 07:10:31 PM 35.0506 -84.7872 169° South 451 519 39,000  Level Atlanta Center
Mon 07:11:31 PM 34.9256 -84.7558 168° South 451 519 39,000  Level Atlanta Center
Mon 07:12:31 PM 34.8067 -84.7244 168° South 451 519 39,000  Level Atlanta Center
Mon 07:13:31 PM 34.6858 -84.6956 169° South 446 513 39,000  Level Atlanta Center
Mon 07:14:31 PM 34.5567 -84.6592 167° South 446 513 39,000  Level Atlanta Center
Mon 07:15:31 PM 34.4356 -84.6331 170° South 441 507 39,000  Level Atlanta Center
Mon 07:16:31 PM 34.3169 -84.6022 168° South 441 507 39,000  Level Atlanta Center
Mon 07:17:31 PM 34.1981 -84.5739 169° South 441 507 39,000  Level Atlanta Center
Mon 07:18:31 PM 34.0897 -84.5506 170° South 446 513 39,000  Level Atlanta Center
Mon 07:19:31 PM 33.9686 -84.5222 169° South 446 513 39,000  Level Atlanta Center
Mon 07:20:31 PM 33.8392 -84.5089 175° South 440 506 39,000  Level Atlanta Center
Mon 07:21:31 PM 33.7328 -84.5033 178° South 418 481 39,000  Level Atlanta Center
Mon 07:22:31 PM 33.6014 -84.4953 177° South 435 501 39,000  Level Atlanta Center
Mon 07:23:31 PM 33.4783 -84.4872 177° South 440 506 39,000  Level Atlanta Center
Mon 07:24:31 PM 33.3572 -84.4839 179° South 434 499 39,000  Level Atlanta Center
Mon 07:25:31 PM 33.2486 -84.4783 178° South 439 505 39,000  Level Atlanta Center
Mon 07:26:31 PM 33.1275 -84.4753 179° South 434 499 39,000 100 Level Atlanta Center
Mon 07:27:31 PM 33.0067 -84.4675 177° South 441 507 39,200 700 Climbing Atlanta Center
Mon 07:28:31 PM 32.8814 -84.4642 179° South 441 507 40,400 900 Climbing Atlanta Center
Mon 07:29:31 PM 32.7519 -84.4586 178° South 441 507 41,000 300 Climbing Atlanta Center
Mon 07:30:31 PM 32.6308 -84.4556 179° South 441 507 41,000  Level Atlanta Center
Mon 07:31:31 PM 32.5097 -84.4503 178° South 441 507 41,000  Level Atlanta Center
Mon 07:32:31 PM 32.3908 -84.4447 178° South 436 502 41,000  Level Atlanta Center
Mon 07:33:31 PM 32.2697 -84.4417 179° South 436 502 41,000  Level Atlanta Center
Mon 07:34:31 PM 32.1489 -84.4386 179° South 436 502 41,000  Level Atlanta Center
Mon 07:34:52 PM 32.1092 -84.4353 176° South 439 505 41,000  Level Jacksonville Center
Mon 07:35:52 PM 31.9881 -84.4283 177° South 424 488 41,000  Level Jacksonville Center
Mon 07:36:52 PM 31.8675 -84.3969 168° South 424 488 41,000  Level Jacksonville Center
Mon 07:37:52 PM 31.7511 -84.3439 159° South 435 501 41,000  Level Jacksonville Center
Mon 07:38:52 PM 31.6328 -84.2908 159° South 442 509 41,000  Level Jacksonville Center
Mon 07:39:52 PM 31.5142 -84.2353 158° South 448 516 41,000  Level Jacksonville Center
Mon 07:40:52 PM 31.3958 -84.1850 160° South 448 516 41,000  Level Jacksonville Center
Mon 07:41:52 PM 31.2794 -84.1322 159° South 448 516 41,000  Level Jacksonville Center
Mon 07:42:52 PM 31.1631 -84.0797 159° South 448 516 41,000  Level Jacksonville Center
Mon 07:43:52 PM 31.0444 -84.0297 160° South 448 516 41,000  Level Jacksonville Center
Mon 07:44:52 PM 30.9300 -83.9800 160° South 448 516 41,000  Level Jacksonville Center
Mon 07:45:52 PM 30.8094 -83.9278 160° South 448 516 41,000  Level Jacksonville Center
Mon 07:46:52 PM 30.6928 -83.8831 162° South 448 516 41,000  Level Jacksonville Center
Mon 07:47:52 PM 30.5742 -83.8286 158° South 443 510 41,000  Level Jacksonville Center
Mon 07:48:52 PM 30.4722 -83.7844 160° South 438 504 41,000  Level Jacksonville Center
Mon 07:49:52 PM 30.3514 -83.7328 160° South 443 510 41,000  Level Jacksonville Center
Mon 07:50:52 PM 30.2306 -83.6811 160° South 455 524 41,000  Level Jacksonville Center
Mon 07:51:52 PM 30.1100 -83.6322 161° South 460 529 41,000  Level Jacksonville Center
Mon 07:52:52 PM 29.9869 -83.5808 160° South 465 535 41,000  Level Jacksonville Center
Mon 07:53:52 PM 29.8661 -83.5319 161° South 465 535 41,000  Level Jacksonville Center
Mon 07:54:52 PM 29.7411 -83.4786 160° South 465 535 41,000  Level Jacksonville Center
Mon 07:55:52 PM 29.6181 -83.4278 160° South 465 535 41,000  Level Jacksonville Center
Mon 07:56:52 PM 29.4953 -83.3769 160° South 470 541 41,000  Level Jacksonville Center
Mon 07:57:52 PM 29.3722 -83.3239 159° South 470 541 41,000  Level Jacksonville Center
Mon 07:58:52 PM 29.2492 -83.2733 160° South 470 541 41,000  Level Jacksonville Center
Mon 07:59:52 PM 29.1283 -83.2231 160° South 470 541 41,000  Level Jacksonville Center
Mon 08:00:52 PM 29.0075 -83.1728 160° South 470 541 41,000  Level Jacksonville Center
Mon 08:01:52 PM 28.8697 -83.1156 160° South 470 541 41,000  Level Jacksonville Center
Mon 08:02:52 PM 28.7467 -83.0656 160° South 470 541 41,000  Level Jacksonville Center
Mon 08:03:52 PM 28.6236 -83.0156 160° South 465 535 41,000  Level Jacksonville Center
Mon 08:04:52 PM 28.5006 -82.9658 160° South 465 535 41,000  Level Jacksonville Center
Mon 08:06:15 PM 28.3258 -82.8981 161° South 465 535 41,000  Level Miami Center
Mon 08:07:15 PM 28.2008 -82.8467 160° South 471 542 41,000  Level Miami Center
Mon 08:08:15 PM 28.0797 -82.7953 159° South 471 542 41,000  Level Miami Center
Mon 08:09:15 PM 27.9506 -82.7417 160° South 480 552 41,000  Level Miami Center
Mon 08:10:15 PM 27.8253 -82.6953 162° South 480 552 41,000  Level Miami Center
Mon 08:11:15 PM 27.7142 -82.6567 163° South 472 543 41,000  Level Miami Center
Mon 08:12:15 PM 27.5764 -82.6053 162° South 472 543 41,000  Level Miami Center
Mon 08:13:15 PM 27.4511 -82.5569 161° South 472 543 41,000  Level Miami Center
Mon 08:14:15 PM 27.3278 -82.5111 162° South 477 549 41,000 -300 Level Miami Center
Mon 08:15:15 PM 27.2086 -82.4656 161° South 471 542 40,400 -1,050 Descending Miami Center
Mon 08:16:15 PM 27.0831 -82.4200 162° South 464 534 38,900 -1,600 Descending Miami Center
Mon 08:17:15 PM 26.9575 -82.3744 162° South 474 545 37,200 -1,400 Descending Miami Center
Mon 08:18:15 PM 26.8242 -82.3656 177° South 474 545 36,100 -1,550 Descending Miami Center
Mon 08:19:15 PM 26.6992 -82.3597 178° South 467 537 34,100 -1,800 Descending Miami Center
Mon 08:20:15 PM 26.5806 -82.2939 154° Southeast 452 520 32,500 -1,800 Descending Miami Center
Mon 08:21:15 PM 26.4847 -82.1781 133° Southeast 464 534 30,500 -2,200 Descending Miami Center
Mon 08:22:15 PM 26.3889 -82.0581 132° Southeast 492 566 28,100 -2,300 Descending Miami Center
Mon 08:23:15 PM 26.2944 -81.9472 134° Southeast 492 566 25,900 -2,100 Descending Miami Center
Mon 08:24:15 PM 26.2228 -81.8494 129° Southeast 481 554 23,900 -2,250 Descending Miami Center
Mon 08:25:15 PM 26.1686 -81.7267 116° Southeast 446 513 21,400 -2,400 Descending Miami Center
Mon 08:26:15 PM 26.1244 -81.6022 112° Southeast 434 499 19,100 -2,250 Descending Miami Center
Mon 08:27:15 PM 26.0844 -81.4853 111° Southeast 420 483 16,900 -2,200 Descending Miami Center
Mon 08:28:15 PM 26.0400 -81.3725 114° Southeast 408 470 14,700 -2,100 Descending Miami Center
Mon 08:29:15 PM 26.0036 -81.2647 111° Southeast 388 447 12,700 -2,100 Descending Miami Center
Mon 08:30:15 PM 25.9647 -81.1617 113° Southeast 376 433 10,500 -1,761 Descending Miami Center
Mon 08:30:47 PM 25.9375 -81.1008 116° Southeast 346 398 10,000 -600 Descending Miami Center
Mon 08:31:15 PM 25.9300 -81.0681 104° East 351 404 9,900  Descending Miami Center
Mon 08:31:48 PM 25.9086 -81.0167 115° Southeast 267 307 10,000 -200 Climbing Miami Center
Mon 08:32:15 PM 25.9094 -80.9867 88° East 308 354 9,700 -985 Descending Miami Center
Mon 08:32:55 PM 25.9150 -80.9336 83° East 244 281 8,900 -1,100 Descending Miami Center
Mon 08:33:15 PM 25.9197 -80.9108 77° East 260 299 8,600 -1,180 Descending Miami Center
Mon 08:33:56 PM 25.9256 -80.8508 84° East 249 287 7,700 -1,200 Descending Miami Center
Mon 08:34:15 PM 25.9281 -80.8347 80° East 253 291 7,400 -984 Descending Miami Center
Mon 08:34:57 PM 25.9339 -80.7772 84° East 246 283 6,700 -900 Descending Miami Center
Mon 08:35:15 PM 25.9386 -80.7614 72° East 248 285 6,500 -968 Descending Miami Center
Mon 08:35:59 PM 25.9233 -80.7053 107° East 239 275 5,700 -1,100 Descending Miami Center
Mon 08:36:15 PM 25.9258 -80.6917 78° East 241 277 5,400 -1,082 Descending Miami Center
Mon 08:37:00 PM 25.9083 -80.6378 110° East 227 261 4,600 -1,000 Descending Miami Center
Mon 08:37:15 PM 25.9108 -80.6219 80° East 231 266 4,400 -984 Descending Miami Center
Mon 08:38:01 PM 25.8975 -80.5706 106° East 221 254 3,600 -785 Descending Miami Center
Mon 08:39:02 PM 25.8803 -80.5031 106° East 215 247 3,000 -492 Descending Miami Center
Mon 08:40:03 PM 25.8653 -80.4403 105° East 204 235 2,600 -590 Descending Miami Center
Mon 08:41:04 PM 25.8433 -80.3981 120° Southeast 137 158 1,800 -787 Descending Miami Center

Login

Don't have an account? Register now (free) for customized features, flight alerts, and more!